sensor_id;sensor_type;location;lat;lon;timestamp;P1;durP1;ratioP1;P2;durP2;ratioP2
69081;SDS011;56184;51.986;5.760;2022-10-24T00:00:41;8.40;;;2.67;;
69081;SDS011;56184;51.986;5.760;2022-10-24T00:03:08;15.50;;;2.97;;
69081;SDS011;56184;51.986;5.760;2022-10-24T00:05:34;11.30;;;2.58;;
69081;SDS011;56184;51.986;5.760;2022-10-24T00:07:59;6.43;;;2.15;;
69081;SDS011;56184;51.986;5.760;2022-10-24T00:10:25;8.85;;;2.40;;
69081;SDS011;56184;51.986;5.760;2022-10-24T00:12:52;8.05;;;2.40;;
69081;SDS011;56184;51.986;5.760;2022-10-24T00:15:18;11.50;;;2.58;;
69081;SDS011;56184;51.986;5.760;2022-10-24T00:17:44;8.10;;;2.25;;
69081;SDS011;56184;51.986;5.760;2022-10-24T00:20:10;10.18;;;2.30;;
69081;SDS011;56184;51.986;5.760;2022-10-24T00:22:36;12.57;;;2.50;;
69081;SDS011;56184;51.986;5.760;2022-10-24T00:25:02;5.20;;;2.40;;
69081;SDS011;56184;51.986;5.760;2022-10-24T00:27:28;9.07;;;2.45;;
69081;SDS011;56184;51.986;5.760;2022-10-24T00:29:53;9.43;;;2.40;;
69081;SDS011;56184;51.986;5.760;2022-10-24T00:32:19;5.90;;;2.08;;
69081;SDS011;56184;51.986;5.760;2022-10-24T00:34:44;9.70;;;2.20;;
69081;SDS011;56184;51.986;5.760;2022-10-24T00:37:10;12.27;;;2.45;;
69081;SDS011;56184;51.986;5.760;2022-10-24T00:39:36;9.68;;;2.10;;
69081;SDS011;56184;51.986;5.760;2022-10-24T00:42:11;9.27;;;2.40;;
69081;SDS011;56184;51.986;5.760;2022-10-24T00:44:37;20.45;;;2.65;;
69081;SDS011;56184;51.986;5.760;2022-10-24T00:49:42;6.28;;;2.05;;
69081;SDS011;56184;51.986;5.760;2022-10-24T00:52:34;8.90;;;1.90;;
69081;SDS011;56184;51.986;5.760;2022-10-24T00:55:04;10.60;;;2.33;;
69081;SDS011;56184;51.986;5.760;2022-10-24T00:57:45;7.93;;;1.73;;
69081;SDS011;56184;51.986;5.760;2022-10-24T01:00:21;7.22;;;1.63;;
69081;SDS011;56184;51.986;5.760;2022-10-24T01:02:49;8.50;;;1.55;;
69081;SDS011;56184;51.986;5.760;2022-10-24T01:05:15;8.32;;;1.95;;
69081;SDS011;56184;51.986;5.760;2022-10-24T01:07:46;9.98;;;1.90;;
69081;SDS011;56184;51.986;5.760;2022-10-24T01:10:20;8.38;;;2.00;;
69081;SDS011;56184;51.986;5.760;2022-10-24T01:20:41;12.85;;;2.17;;
69081;SDS011;56184;51.986;5.760;2022-10-24T01:23:26;9.48;;;1.73;;
69081;SDS011;56184;51.986;5.760;2022-10-24T01:26:04;8.65;;;1.80;;
69081;SDS011;56184;51.986;5.760;2022-10-24T01:28:56;14.75;;;2.10;;
69081;SDS011;56184;51.986;5.760;2022-10-24T01:31:28;5.63;;;1.70;;
69081;SDS011;56184;51.986;5.760;2022-10-24T01:34:10;4.15;;;1.52;;
69081;SDS011;56184;51.986;5.760;2022-10-24T01:37:01;11.90;;;2.20;;
69081;SDS011;56184;51.986;5.760;2022-10-24T01:39:39;10.57;;;1.90;;
69081;SDS011;56184;51.986;5.760;2022-10-24T01:42:15;8.25;;;1.75;;
69081;SDS011;56184;51.986;5.760;2022-10-24T01:44:45;9.27;;;2.00;;
69081;SDS011;56184;51.986;5.760;2022-10-24T01:47:18;9.30;;;1.98;;
69081;SDS011;56184;51.986;5.760;2022-10-24T01:49:50;7.55;;;2.42;;
69081;SDS011;56184;51.986;5.760;2022-10-24T01:52:19;10.52;;;1.90;;
69081;SDS011;56184;51.986;5.760;2022-10-24T01:54:45;6.40;;;1.85;;
69081;SDS011;56184;51.986;5.760;2022-10-24T01:57:13;7.65;;;2.25;;
69081;SDS011;56184;51.986;5.760;2022-10-24T01:59:40;10.52;;;2.38;;
69081;SDS011;56184;51.986;5.760;2022-10-24T02:02:09;10.35;;;1.73;;
69081;SDS011;56184;51.986;5.760;2022-10-24T02:04:50;7.35;;;2.03;;
69081;SDS011;56184;51.986;5.760;2022-10-24T02:07:20;7.25;;;1.98;;
69081;SDS011;56184;51.986;5.760;2022-10-24T02:09:47;6.47;;;2.20;;
69081;SDS011;56184;51.986;5.760;2022-10-24T02:12:16;12.23;;;1.90;;
69081;SDS011;56184;51.986;5.760;2022-10-24T02:14:47;6.70;;;2.00;;
69081;SDS011;56184;51.986;5.760;2022-10-24T02:17:16;5.05;;;1.80;;
69081;SDS011;56184;51.986;5.760;2022-10-24T02:19:42;10.70;;;2.13;;
69081;SDS011;56184;51.986;5.760;2022-10-24T02:22:28;6.30;;;2.03;;
69081;SDS011;56184;51.986;5.760;2022-10-24T02:24:56;11.48;;;2.03;;
69081;SDS011;56184;51.986;5.760;2022-10-24T02:27:30;12.13;;;2.50;;
69081;SDS011;56184;51.986;5.760;2022-10-24T02:32:44;9.30;;;2.22;;
69081;SDS011;56184;51.986;5.760;2022-10-24T02:35:16;4.50;;;1.77;;
69081;SDS011;56184;51.986;5.760;2022-10-24T02:37:45;8.57;;;1.80;;
69081;SDS011;56184;51.986;5.760;2022-10-24T02:42:44;9.38;;;2.13;;
69081;SDS011;56184;51.986;5.760;2022-10-24T02:45:11;7.63;;;1.75;;
69081;SDS011;56184;51.986;5.760;2022-10-24T02:47:39;4.65;;;1.60;;
69081;SDS011;56184;51.986;5.760;2022-10-24T02:50:08;8.48;;;1.73;;
69081;SDS011;56184;51.986;5.760;2022-10-24T02:52:34;5.63;;;1.83;;
69081;SDS011;56184;51.986;5.760;2022-10-24T02:55:02;17.65;;;2.40;;
69081;SDS011;56184;51.986;5.760;2022-10-24T02:57:28;9.93;;;1.60;;
69081;SDS011;56184;51.986;5.760;2022-10-24T02:59:53;8.65;;;1.83;;
69081;SDS011;56184;51.986;5.760;2022-10-24T03:02:19;9.10;;;1.50;;
69081;SDS011;56184;51.986;5.760;2022-10-24T03:04:44;2.83;;;1.50;;
69081;SDS011;56184;51.986;5.760;2022-10-24T03:07:10;7.25;;;1.70;;
69081;SDS011;56184;51.986;5.760;2022-10-24T03:09:36;5.18;;;1.55;;
69081;SDS011;56184;51.986;5.760;2022-10-24T03:12:02;10.57;;;1.70;;
69081;SDS011;56184;51.986;5.760;2022-10-24T03:14:28;6.85;;;1.42;;
69081;SDS011;56184;51.986;5.760;2022-10-24T03:16:54;6.88;;;1.58;;
69081;SDS011;56184;51.986;5.760;2022-10-24T03:19:19;6.90;;;1.50;;
69081;SDS011;56184;51.986;5.760;2022-10-24T03:21:45;5.75;;;1.50;;
69081;SDS011;56184;51.986;5.760;2022-10-24T03:24:10;7.63;;;1.77;;
69081;SDS011;56184;51.986;5.760;2022-10-24T03:26:36;7.20;;;1.33;;
69081;SDS011;56184;51.986;5.760;2022-10-24T03:29:02;5.57;;;1.25;;
69081;SDS011;56184;51.986;5.760;2022-10-24T03:31:27;13.00;;;1.67;;
69081;SDS011;56184;51.986;5.760;2022-10-24T03:33:54;8.35;;;1.50;;
69081;SDS011;56184;51.986;5.760;2022-10-24T03:36:20;10.18;;;1.55;;
69081;SDS011;56184;51.986;5.760;2022-10-24T03:38:45;6.32;;;1.10;;
69081;SDS011;56184;51.986;5.760;2022-10-24T03:41:11;9.32;;;1.73;;
69081;SDS011;56184;51.986;5.760;2022-10-24T03:43:36;10.98;;;1.50;;
69081;SDS011;56184;51.986;5.760;2022-10-24T03:46:02;7.72;;;1.20;;
69081;SDS011;56184;51.986;5.760;2022-10-24T03:48:28;4.43;;;1.40;;
69081;SDS011;56184;51.986;5.760;2022-10-24T03:50:53;4.28;;;1.38;;
69081;SDS011;56184;51.986;5.760;2022-10-24T03:53:19;6.20;;;1.40;;
69081;SDS011;56184;51.986;5.760;2022-10-24T03:55:44;5.95;;;1.70;;
69081;SDS011;56184;51.986;5.760;2022-10-24T03:58:10;6.45;;;1.45;;
69081;SDS011;56184;51.986;5.760;2022-10-24T04:00:35;4.97;;;1.42;;
69081;SDS011;56184;51.986;5.760;2022-10-24T04:03:04;8.90;;;1.52;;
69081;SDS011;56184;51.986;5.760;2022-10-24T04:05:30;10.63;;;1.92;;
69081;SDS011;56184;51.986;5.760;2022-10-24T04:07:56;4.15;;;1.23;;
69081;SDS011;56184;51.986;5.760;2022-10-24T04:10:22;8.25;;;1.40;;
69081;SDS011;56184;51.986;5.760;2022-10-24T04:12:47;6.72;;;1.10;;
69081;SDS011;56184;51.986;5.760;2022-10-24T04:15:13;4.95;;;1.35;;
69081;SDS011;56184;51.986;5.760;2022-10-24T04:17:39;9.55;;;1.33;;
69081;SDS011;56184;51.986;5.760;2022-10-24T04:20:05;7.32;;;1.40;;
69081;SDS011;56184;51.986;5.760;2022-10-24T04:22:31;5.28;;;1.40;;
69081;SDS011;56184;51.986;5.760;2022-10-24T04:24:57;4.72;;;1.13;;
69081;SDS011;56184;51.986;5.760;2022-10-24T04:27:22;3.65;;;1.00;;
69081;SDS011;56184;51.986;5.760;2022-10-24T04:29:48;10.20;;;1.45;;
69081;SDS011;56184;51.986;5.760;2022-10-24T04:32:14;7.50;;;1.27;;
69081;SDS011;56184;51.986;5.760;2022-10-24T04:34:39;4.63;;;1.17;;
69081;SDS011;56184;51.986;5.760;2022-10-24T04:37:05;7.90;;;1.25;;
69081;SDS011;56184;51.986;5.760;2022-10-24T04:39:30;4.28;;;1.27;;
69081;SDS011;56184;51.986;5.760;2022-10-24T04:41:56;3.95;;;1.08;;
69081;SDS011;56184;51.986;5.760;2022-10-24T04:44:21;10.48;;;1.27;;
69081;SDS011;56184;51.986;5.760;2022-10-24T04:46:48;4.30;;;1.05;;
69081;SDS011;56184;51.986;5.760;2022-10-24T04:49:14;10.85;;;1.40;;
69081;SDS011;56184;51.986;5.760;2022-10-24T04:51:40;9.90;;;1.45;;
69081;SDS011;56184;51.986;5.760;2022-10-24T04:54:05;5.78;;;1.35;;
69081;SDS011;56184;51.986;5.760;2022-10-24T04:56:31;7.53;;;1.50;;
69081;SDS011;56184;51.986;5.760;2022-10-24T04:58:57;6.00;;;1.38;;
69081;SDS011;56184;51.986;5.760;2022-10-24T05:01:22;8.27;;;1.63;;
69081;SDS011;56184;51.986;5.760;2022-10-24T05:03:48;9.45;;;1.48;;
69081;SDS011;56184;51.986;5.760;2022-10-24T05:06:13;7.70;;;1.20;;
69081;SDS011;56184;51.986;5.760;2022-10-24T05:08:39;10.18;;;1.33;;
69081;SDS011;56184;51.986;5.760;2022-10-24T05:11:05;6.05;;;1.40;;
69081;SDS011;56184;51.986;5.760;2022-10-24T05:13:31;7.75;;;1.45;;
69081;SDS011;56184;51.986;5.760;2022-10-24T05:15:56;7.57;;;1.67;;
69081;SDS011;56184;51.986;5.760;2022-10-24T05:18:22;7.75;;;1.30;;
69081;SDS011;56184;51.986;5.760;2022-10-24T05:20:47;11.43;;;1.50;;
69081;SDS011;56184;51.986;5.760;2022-10-24T05:23:13;6.43;;;1.45;;
69081;SDS011;56184;51.986;5.760;2022-10-24T05:25:39;9.35;;;1.42;;
69081;SDS011;56184;51.986;5.760;2022-10-24T05:28:04;13.20;;;1.55;;
69081;SDS011;56184;51.986;5.760;2022-10-24T05:30:30;6.50;;;1.30;;
69081;SDS011;56184;51.986;5.760;2022-10-24T05:32:56;7.63;;;1.50;;
69081;SDS011;56184;51.986;5.760;2022-10-24T05:35:21;5.88;;;1.42;;
69081;SDS011;56184;51.986;5.760;2022-10-24T05:37:47;4.53;;;1.10;;
69081;SDS011;56184;51.986;5.760;2022-10-24T05:40:12;5.18;;;1.30;;
69081;SDS011;56184;51.986;5.760;2022-10-24T05:42:38;6.15;;;1.35;;
69081;SDS011;56184;51.986;5.760;2022-10-24T05:45:05;12.60;;;1.67;;
69081;SDS011;56184;51.986;5.760;2022-10-24T05:47:32;7.00;;;1.33;;
69081;SDS011;56184;51.986;5.760;2022-10-24T05:49:57;12.73;;;1.55;;
69081;SDS011;56184;51.986;5.760;2022-10-24T05:52:23;8.73;;;1.63;;
69081;SDS011;56184;51.986;5.760;2022-10-24T05:54:48;7.85;;;1.40;;
69081;SDS011;56184;51.986;5.760;2022-10-24T05:57:14;6.32;;;1.60;;
69081;SDS011;56184;51.986;5.760;2022-10-24T05:59:39;6.75;;;1.42;;
69081;SDS011;56184;51.986;5.760;2022-10-24T06:02:05;6.30;;;1.30;;
69081;SDS011;56184;51.986;5.760;2022-10-24T06:04:31;6.82;;;1.30;;
69081;SDS011;56184;51.986;5.760;2022-10-24T06:06:56;10.25;;;1.60;;
69081;SDS011;56184;51.986;5.760;2022-10-24T06:09:22;9.50;;;1.23;;
69081;SDS011;56184;51.986;5.760;2022-10-24T06:11:47;10.10;;;1.40;;
69081;SDS011;56184;51.986;5.760;2022-10-24T06:14:13;6.47;;;1.55;;
69081;SDS011;56184;51.986;5.760;2022-10-24T06:16:40;5.57;;;1.15;;
69081;SDS011;56184;51.986;5.760;2022-10-24T06:19:06;5.88;;;1.20;;
69081;SDS011;56184;51.986;5.760;2022-10-24T06:21:32;8.38;;;1.25;;
69081;SDS011;56184;51.986;5.760;2022-10-24T06:23:57;11.88;;;1.33;;
69081;SDS011;56184;51.986;5.760;2022-10-24T06:26:24;8.48;;;1.20;;
69081;SDS011;56184;51.986;5.760;2022-10-24T06:28:49;8.60;;;1.33;;
69081;SDS011;56184;51.986;5.760;2022-10-24T06:31:15;6.78;;;1.35;;
69081;SDS011;56184;51.986;5.760;2022-10-24T06:33:42;7.93;;;1.38;;
69081;SDS011;56184;51.986;5.760;2022-10-24T06:36:09;9.18;;;1.52;;
69081;SDS011;56184;51.986;5.760;2022-10-24T06:38:36;9.18;;;1.50;;
69081;SDS011;56184;51.986;5.760;2022-10-24T06:41:05;8.82;;;1.63;;
69081;SDS011;56184;51.986;5.760;2022-10-24T06:43:32;9.43;;;1.27;;
69081;SDS011;56184;51.986;5.760;2022-10-24T06:45:58;15.90;;;1.98;;
69081;SDS011;56184;51.986;5.760;2022-10-24T06:48:23;6.93;;;1.33;;
69081;SDS011;56184;51.986;5.760;2022-10-24T06:50:49;8.30;;;1.60;;
69081;SDS011;56184;51.986;5.760;2022-10-24T06:53:14;8.40;;;1.42;;
69081;SDS011;56184;51.986;5.760;2022-10-24T06:55:40;9.27;;;1.30;;
69081;SDS011;56184;51.986;5.760;2022-10-24T06:58:05;13.25;;;1.52;;
69081;SDS011;56184;51.986;5.760;2022-10-24T07:00:34;11.07;;;1.45;;
69081;SDS011;56184;51.986;5.760;2022-10-24T07:03:01;5.65;;;1.60;;
69081;SDS011;56184;51.986;5.760;2022-10-24T07:05:27;6.53;;;1.42;;
69081;SDS011;56184;51.986;5.760;2022-10-24T07:07:52;7.22;;;1.52;;
69081;SDS011;56184;51.986;5.760;2022-10-24T07:10:18;6.15;;;1.60;;
69081;SDS011;56184;51.986;5.760;2022-10-24T07:12:43;8.82;;;1.65;;
69081;SDS011;56184;51.986;5.760;2022-10-24T07:15:09;11.50;;;1.90;;
69081;SDS011;56184;51.986;5.760;2022-10-24T07:17:39;10.30;;;1.90;;
69081;SDS011;56184;51.986;5.760;2022-10-24T07:20:09;6.32;;;1.55;;
69081;SDS011;56184;51.986;5.760;2022-10-24T07:22:36;10.52;;;1.73;;
69081;SDS011;56184;51.986;5.760;2022-10-24T07:25:01;12.27;;;1.42;;
69081;SDS011;56184;51.986;5.760;2022-10-24T07:27:27;7.93;;;1.45;;
69081;SDS011;56184;51.986;5.760;2022-10-24T07:29:53;8.30;;;1.50;;
69081;SDS011;56184;51.986;5.760;2022-10-24T07:32:19;13.73;;;1.95;;
69081;SDS011;56184;51.986;5.760;2022-10-24T07:34:45;12.90;;;1.75;;
69081;SDS011;56184;51.986;5.760;2022-10-24T07:37:12;15.93;;;2.10;;
69081;SDS011;56184;51.986;5.760;2022-10-24T07:39:41;8.55;;;1.40;;
69081;SDS011;56184;51.986;5.760;2022-10-24T07:42:07;8.52;;;1.80;;
69081;SDS011;56184;51.986;5.760;2022-10-24T07:44:34;7.28;;;1.55;;
69081;SDS011;56184;51.986;5.760;2022-10-24T07:47:07;9.13;;;1.40;;
69081;SDS011;56184;51.986;5.760;2022-10-24T07:49:34;7.97;;;1.67;;
69081;SDS011;56184;51.986;5.760;2022-10-24T07:52:00;11.25;;;1.77;;
69081;SDS011;56184;51.986;5.760;2022-10-24T07:54:26;10.93;;;2.40;;
69081;SDS011;56184;51.986;5.760;2022-10-24T07:56:52;9.43;;;1.65;;
69081;SDS011;56184;51.986;5.760;2022-10-24T07:59:18;7.40;;;1.60;;
69081;SDS011;56184;51.986;5.760;2022-10-24T08:01:44;7.07;;;1.35;;
69081;SDS011;56184;51.986;5.760;2022-10-24T08:04:09;9.70;;;1.80;;
69081;SDS011;56184;51.986;5.760;2022-10-24T08:06:35;6.97;;;1.50;;
69081;SDS011;56184;51.986;5.760;2022-10-24T08:09:01;7.20;;;1.50;;
69081;SDS011;56184;51.986;5.760;2022-10-24T08:11:28;8.45;;;1.20;;
69081;SDS011;56184;51.986;5.760;2022-10-24T08:13:56;9.68;;;2.30;;
69081;SDS011;56184;51.986;5.760;2022-10-24T08:16:22;9.55;;;1.52;;
69081;SDS011;56184;51.986;5.760;2022-10-24T08:18:50;7.05;;;1.55;;
69081;SDS011;56184;51.986;5.760;2022-10-24T08:21:17;10.55;;;1.80;;
69081;SDS011;56184;51.986;5.760;2022-10-24T08:23:44;9.00;;;1.60;;
69081;SDS011;56184;51.986;5.760;2022-10-24T08:26:13;7.10;;;1.45;;
69081;SDS011;56184;51.986;5.760;2022-10-24T08:28:41;8.98;;;1.63;;
69081;SDS011;56184;51.986;5.760;2022-10-24T08:31:11;14.82;;;1.52;;
69081;SDS011;56184;51.986;5.760;2022-10-24T08:33:39;9.75;;;1.42;;
69081;SDS011;56184;51.986;5.760;2022-10-24T08:36:10;9.98;;;1.38;;
69081;SDS011;56184;51.986;5.760;2022-10-24T08:38:43;5.65;;;1.25;;
69081;SDS011;56184;51.986;5.760;2022-10-24T08:41:19;12.10;;;1.50;;
69081;SDS011;56184;51.986;5.760;2022-10-24T08:57:42;10.75;;;1.25;;
69081;SDS011;56184;51.986;5.760;2022-10-24T09:00:17;6.30;;;1.20;;
69081;SDS011;56184;51.986;5.760;2022-10-24T09:02:50;8.70;;;1.15;;
69081;SDS011;56184;51.986;5.760;2022-10-24T09:05:22;7.70;;;1.23;;
69081;SDS011;56184;51.986;5.760;2022-10-24T09:07:53;5.43;;;1.33;;
69081;SDS011;56184;51.986;5.760;2022-10-24T09:10:30;15.13;;;1.80;;
69081;SDS011;56184;51.986;5.760;2022-10-24T09:13:13;6.03;;;1.10;;
69081;SDS011;56184;51.986;5.760;2022-10-24T09:15:40;6.10;;;1.00;;
69081;SDS011;56184;51.986;5.760;2022-10-24T09:18:16;4.57;;;1.23;;
69081;SDS011;56184;51.986;5.760;2022-10-24T09:20:48;8.23;;;1.20;;
69081;SDS011;56184;51.986;5.760;2022-10-24T09:23:15;5.63;;;1.02;;
69081;SDS011;56184;51.986;5.760;2022-10-24T09:25:43;7.10;;;1.48;;
69081;SDS011;56184;51.986;5.760;2022-10-24T09:28:12;9.57;;;1.40;;
69081;SDS011;56184;51.986;5.760;2022-10-24T09:30:38;7.15;;;1.30;;
69081;SDS011;56184;51.986;5.760;2022-10-24T09:35:56;7.72;;;1.20;;
69081;SDS011;56184;51.986;5.760;2022-10-24T09:41:04;5.18;;;1.20;;
69081;SDS011;56184;51.986;5.760;2022-10-24T09:46:03;5.82;;;1.08;;
69081;SDS011;56184;51.986;5.760;2022-10-24T09:51:06;6.85;;;1.23;;
69081;SDS011;56184;51.986;5.760;2022-10-24T09:53:33;9.95;;;1.30;;
69081;SDS011;56184;51.986;5.760;2022-10-24T09:56:11;4.85;;;1.20;;
69081;SDS011;56184;51.986;5.760;2022-10-24T09:58:38;10.18;;;1.50;;
69081;SDS011;56184;51.986;5.760;2022-10-24T10:01:05;8.55;;;1.30;;
69081;SDS011;56184;51.986;5.760;2022-10-24T10:03:37;6.03;;;1.23;;
69081;SDS011;56184;51.986;5.760;2022-10-24T10:06:13;8.00;;;1.15;;
69081;SDS011;56184;51.986;5.760;2022-10-24T10:08:53;8.38;;;1.23;;
69081;SDS011;56184;51.986;5.760;2022-10-24T10:11:27;6.45;;;1.40;;
69081;SDS011;56184;51.986;5.760;2022-10-24T10:13:55;6.05;;;1.20;;
69081;SDS011;56184;51.986;5.760;2022-10-24T10:18:59;5.13;;;1.20;;
69081;SDS011;56184;51.986;5.760;2022-10-24T10:21:27;6.40;;;1.17;;
69081;SDS011;56184;51.986;5.760;2022-10-24T10:24:40;6.03;;;1.00;;
69081;SDS011;56184;51.986;5.760;2022-10-24T10:35:42;6.78;;;1.38;;
69081;SDS011;56184;51.986;5.760;2022-10-24T10:40:52;8.93;;;1.35;;
69081;SDS011;56184;51.986;5.760;2022-10-24T10:46:52;8.63;;;1.67;;
69081;SDS011;56184;51.986;5.760;2022-10-24T10:49:31;5.35;;;1.20;;
69081;SDS011;56184;51.986;5.760;2022-10-24T10:54:58;8.50;;;1.10;;
69081;SDS011;56184;51.986;5.760;2022-10-24T10:57:55;5.15;;;0.93;;
69081;SDS011;56184;51.986;5.760;2022-10-24T11:00:38;5.97;;;0.88;;
69081;SDS011;56184;51.986;5.760;2022-10-24T11:08:45;5.35;;;1.10;;
69081;SDS011;56184;51.986;5.760;2022-10-24T11:14:44;6.38;;;1.10;;
69081;SDS011;56184;51.986;5.760;2022-10-24T11:17:13;4.07;;;0.85;;
69081;SDS011;56184;51.986;5.760;2022-10-24T11:22:44;5.60;;;1.38;;
69081;SDS011;56184;51.986;5.760;2022-10-24T11:25:19;8.05;;;1.30;;
69081;SDS011;56184;51.986;5.760;2022-10-24T11:28:05;9.85;;;1.42;;
69081;SDS011;56184;51.986;5.760;2022-10-24T11:30:44;8.13;;;1.25;;
69081;SDS011;56184;51.986;5.760;2022-10-24T11:33:26;7.80;;;1.02;;
69081;SDS011;56184;51.986;5.760;2022-10-24T11:35:59;9.20;;;1.35;;
69081;SDS011;56184;51.986;5.760;2022-10-24T11:41:44;8.93;;;1.08;;
69081;SDS011;56184;51.986;5.760;2022-10-24T11:44:24;5.55;;;1.25;;
69081;SDS011;56184;51.986;5.760;2022-10-24T11:52:35;8.52;;;1.10;;
69081;SDS011;56184;51.986;5.760;2022-10-24T11:55:10;5.13;;;0.90;;
69081;SDS011;56184;51.986;5.760;2022-10-24T11:57:41;5.43;;;1.27;;
69081;SDS011;56184;51.986;5.760;2022-10-24T12:00:28;7.68;;;1.33;;
69081;SDS011;56184;51.986;5.760;2022-10-24T12:19:21;16.05;;;1.10;;
69081;SDS011;56184;51.986;5.760;2022-10-24T12:21:53;3.95;;;0.90;;
69081;SDS011;56184;51.986;5.760;2022-10-24T12:24:34;5.22;;;1.15;;
69081;SDS011;56184;51.986;5.760;2022-10-24T12:27:06;6.50;;;1.23;;
69081;SDS011;56184;51.986;5.760;2022-10-24T12:29:45;4.95;;;1.02;;
69081;SDS011;56184;51.986;5.760;2022-10-24T12:32:38;9.93;;;1.10;;
69081;SDS011;56184;51.986;5.760;2022-10-24T12:43:51;4.93;;;0.90;;
69081;SDS011;56184;51.986;5.760;2022-10-24T12:49:16;5.00;;;1.15;;
69081;SDS011;56184;51.986;5.760;2022-10-24T12:51:43;7.30;;;1.15;;
69081;SDS011;56184;51.986;5.760;2022-10-24T13:01:45;4.75;;;1.10;;
69081;SDS011;56184;51.986;5.760;2022-10-24T13:07:06;4.60;;;0.90;;
69081;SDS011;56184;51.986;5.760;2022-10-24T13:15:55;4.88;;;1.17;;
69081;SDS011;56184;51.986;5.760;2022-10-24T13:23:38;7.68;;;1.30;;
69081;SDS011;56184;51.986;5.760;2022-10-24T13:26:04;6.10;;;1.30;;
69081;SDS011;56184;51.986;5.760;2022-10-24T13:28:35;7.25;;;1.10;;
69081;SDS011;56184;51.986;5.760;2022-10-24T13:38:53;6.80;;;1.70;;
69081;SDS011;56184;51.986;5.760;2022-10-24T13:41:37;7.03;;;1.58;;
69081;SDS011;56184;51.986;5.760;2022-10-24T13:47:12;5.43;;;1.17;;
69081;SDS011;56184;51.986;5.760;2022-10-24T13:49:53;5.50;;;1.40;;
69081;SDS011;56184;51.986;5.760;2022-10-24T13:55:15;9.25;;;1.42;;
69081;SDS011;56184;51.986;5.760;2022-10-24T13:57:58;5.63;;;1.08;;
69081;SDS011;56184;51.986;5.760;2022-10-24T14:00:31;7.28;;;1.10;;
69081;SDS011;56184;51.986;5.760;2022-10-24T14:05:52;5.10;;;1.20;;
69081;SDS011;56184;51.986;5.760;2022-10-24T14:08:31;6.88;;;1.27;;
69081;SDS011;56184;51.986;5.760;2022-10-24T14:11:03;6.85;;;1.30;;
69081;SDS011;56184;51.986;5.760;2022-10-24T14:13:33;3.85;;;1.00;;
69081;SDS011;56184;51.986;5.760;2022-10-24T14:16:03;8.60;;;1.63;;
69081;SDS011;56184;51.986;5.760;2022-10-24T14:18:31;6.63;;;1.10;;
69081;SDS011;56184;51.986;5.760;2022-10-24T14:20:58;4.80;;;1.05;;
69081;SDS011;56184;51.986;5.760;2022-10-24T14:23:29;7.75;;;1.23;;
69081;SDS011;56184;51.986;5.760;2022-10-24T14:26:05;7.30;;;1.35;;
69081;SDS011;56184;51.986;5.760;2022-10-24T14:28:50;7.25;;;1.30;;
69081;SDS011;56184;51.986;5.760;2022-10-24T14:33:59;11.35;;;1.30;;
69081;SDS011;56184;51.986;5.760;2022-10-24T14:36:29;13.90;;;1.58;;
69081;SDS011;56184;51.986;5.760;2022-10-24T14:38:57;7.38;;;1.48;;
69081;SDS011;56184;51.986;5.760;2022-10-24T14:41:26;7.05;;;1.63;;
69081;SDS011;56184;51.986;5.760;2022-10-24T14:43:57;6.85;;;1.63;;
69081;SDS011;56184;51.986;5.760;2022-10-24T14:46:35;6.93;;;1.30;;
69081;SDS011;56184;51.986;5.760;2022-10-24T14:49:21;6.25;;;1.30;;
69081;SDS011;56184;51.986;5.760;2022-10-24T14:51:53;6.18;;;1.58;;
69081;SDS011;56184;51.986;5.760;2022-10-24T14:54:25;6.47;;;1.35;;
69081;SDS011;56184;51.986;5.760;2022-10-24T14:56:57;13.13;;;1.92;;
69081;SDS011;56184;51.986;5.760;2022-10-24T14:59:30;10.02;;;1.40;;
69081;SDS011;56184;51.986;5.760;2022-10-24T15:02:01;7.78;;;1.63;;
69081;SDS011;56184;51.986;5.760;2022-10-24T15:04:30;6.72;;;1.38;;
69081;SDS011;56184;51.986;5.760;2022-10-24T15:07:14;9.68;;;1.80;;
69081;SDS011;56184;51.986;5.760;2022-10-24T15:10:01;11.02;;;1.60;;
69081;SDS011;56184;51.986;5.760;2022-10-24T15:20:31;6.60;;;1.48;;
69081;SDS011;56184;51.986;5.760;2022-10-24T15:22:59;6.78;;;1.55;;
69081;SDS011;56184;51.986;5.760;2022-10-24T15:25:29;6.13;;;1.20;;
69081;SDS011;56184;51.986;5.760;2022-10-24T15:27:57;5.93;;;1.15;;
69081;SDS011;56184;51.986;5.760;2022-10-24T15:30:25;5.57;;;1.42;;
69081;SDS011;56184;51.986;5.760;2022-10-24T15:32:53;5.35;;;1.20;;
69081;SDS011;56184;51.986;5.760;2022-10-24T15:35:20;4.82;;;1.10;;
69081;SDS011;56184;51.986;5.760;2022-10-24T15:37:56;7.25;;;1.42;;
69081;SDS011;56184;51.986;5.760;2022-10-24T15:40:29;10.57;;;1.20;;
69081;SDS011;56184;51.986;5.760;2022-10-24T15:42:57;7.03;;;1.42;;
69081;SDS011;56184;51.986;5.760;2022-10-24T15:45:23;4.25;;;1.25;;
69081;SDS011;56184;51.986;5.760;2022-10-24T15:47:49;9.80;;;1.70;;
69081;SDS011;56184;51.986;5.760;2022-10-24T15:50:16;6.45;;;1.42;;
69081;SDS011;56184;51.986;5.760;2022-10-24T15:52:52;7.43;;;1.95;;
69081;SDS011;56184;51.986;5.760;2022-10-24T15:55:23;13.32;;;1.90;;
69081;SDS011;56184;51.986;5.760;2022-10-24T15:57:57;14.57;;;1.83;;
69081;SDS011;56184;51.986;5.760;2022-10-24T16:00:27;10.35;;;1.70;;
69081;SDS011;56184;51.986;5.760;2022-10-24T16:02:54;6.85;;;2.10;;
69081;SDS011;56184;51.986;5.760;2022-10-24T16:05:23;9.93;;;2.00;;
69081;SDS011;56184;51.986;5.760;2022-10-24T16:08:00;9.43;;;1.85;;
69081;SDS011;56184;51.986;5.760;2022-10-24T16:10:26;6.43;;;1.58;;
69081;SDS011;56184;51.986;5.760;2022-10-24T16:12:51;6.45;;;1.85;;
69081;SDS011;56184;51.986;5.760;2022-10-24T16:15:28;10.98;;;1.92;;
69081;SDS011;56184;51.986;5.760;2022-10-24T16:18:00;8.82;;;1.90;;
69081;SDS011;56184;51.986;5.760;2022-10-24T16:20:26;6.72;;;2.05;;
69081;SDS011;56184;51.986;5.760;2022-10-24T16:22:52;13.70;;;2.47;;
69081;SDS011;56184;51.986;5.760;2022-10-24T16:25:23;9.60;;;2.33;;
69081;SDS011;56184;51.986;5.760;2022-10-24T16:27:50;14.40;;;2.80;;
69081;SDS011;56184;51.986;5.760;2022-10-24T16:30:17;7.80;;;2.50;;
69081;SDS011;56184;51.986;5.760;2022-10-24T16:32:44;11.25;;;2.70;;
69081;SDS011;56184;51.986;5.760;2022-10-24T16:35:15;5.00;;;2.10;;
69081;SDS011;56184;51.986;5.760;2022-10-24T16:37:44;8.52;;;2.15;;
69081;SDS011;56184;51.986;5.760;2022-10-24T16:40:10;8.45;;;2.40;;
69081;SDS011;56184;51.986;5.760;2022-10-24T16:42:36;13.10;;;2.60;;
69081;SDS011;56184;51.986;5.760;2022-10-24T16:47:32;10.05;;;2.15;;
69081;SDS011;56184;51.986;5.760;2022-10-24T16:49:58;14.23;;;4.20;;
69081;SDS011;56184;51.986;5.760;2022-10-24T16:52:24;7.55;;;1.85;;
69081;SDS011;56184;51.986;5.760;2022-10-24T16:54:51;10.27;;;2.22;;
69081;SDS011;56184;51.986;5.760;2022-10-24T16:57:20;8.40;;;1.80;;
69081;SDS011;56184;51.986;5.760;2022-10-24T16:59:47;13.88;;;2.38;;
69081;SDS011;56184;51.986;5.760;2022-10-24T17:02:14;10.48;;;1.85;;
69081;SDS011;56184;51.986;5.760;2022-10-24T17:04:40;6.97;;;1.73;;
69081;SDS011;56184;51.986;5.760;2022-10-24T17:07:07;12.63;;;2.30;;
69081;SDS011;56184;51.986;5.760;2022-10-24T17:09:33;8.05;;;1.60;;
69081;SDS011;56184;51.986;5.760;2022-10-24T17:11:59;6.53;;;2.00;;
69081;SDS011;56184;51.986;5.760;2022-10-24T17:14:25;8.23;;;1.80;;
69081;SDS011;56184;51.986;5.760;2022-10-24T17:16:51;9.10;;;2.22;;
69081;SDS011;56184;51.986;5.760;2022-10-24T17:19:17;7.18;;;2.00;;
69081;SDS011;56184;51.986;5.760;2022-10-24T17:21:47;9.95;;;2.58;;
69081;SDS011;56184;51.986;5.760;2022-10-24T17:24:15;8.43;;;2.70;;
69081;SDS011;56184;51.986;5.760;2022-10-24T17:26:45;11.13;;;3.95;;
69081;SDS011;56184;51.986;5.760;2022-10-24T17:29:14;16.92;;;5.97;;
69081;SDS011;56184;51.986;5.760;2022-10-24T17:31:48;20.17;;;7.20;;
69081;SDS011;56184;51.986;5.760;2022-10-24T17:34:14;22.55;;;10.18;;
69081;SDS011;56184;51.986;5.760;2022-10-24T17:36:40;17.38;;;9.80;;
69081;SDS011;56184;51.986;5.760;2022-10-24T17:39:23;13.07;;;7.35;;